Flight Track Log - Related Links

Times and Time Zones

All times are in EST time to prevent confusion due to time zone crossing. See the SWA616 flight status page for this flight to view local times or setup timezone preferences in your user account.

Time Position Orientation Groundspeed Altitude Reporting Facility
EST Latitude Longitude Course Direction KTS MPH feet Rate Location/Type
Tue 11:37:37 PM 33.4333 -112.0333 273° West 146 168 2,300  Level Phoenix TRACON
Tue 11:38:01 PM 33.4167 -112.0500 220° Southwest 173 199 2,900 2,412 Climbing Phoenix TRACON
Tue 11:39:19 PM 33.4008 -112.1361 258° West 212 244 6,400 3,300 Climbing Albuquerque Center
Tue 11:40:21 PM 33.3778 -112.2250 253° West 275 316 10,600 3,561 Climbing Albuquerque Center
Tue 11:41:22 PM 33.3856 -112.3331 275° West 340 391 13,700 3,541 Climbing Albuquerque Center
Tue 11:42:23 PM 33.4006 -112.4447 279° West 340 391 17,800 3,756 Climbing Albuquerque Center
Tue 11:43:00 PM 33.4475 -112.7351 273° West  Level FlightAware Approximate
Tue 11:43:25 PM 33.4164 -112.5592 279° West 348 400 21,400  Level Albuquerque Center
Tue 11:44:26 PM 33.4317 -112.6769 279° West 355 409 23,800 1,770 Climbing Albuquerque Center
Tue 11:45:27 PM 33.4497 -112.8008 280° West 368 423 25,000 984 Climbing Albuquerque Center
Tue 11:46:28 PM 33.4719 -112.9250 282° West 379 436 25,800 1,707 Climbing Albuquerque Center
Tue 11:47:30 PM 33.5017 -113.0767 283° West 389 448 28,500 2,341 Climbing Albuquerque Center
Tue 11:48:31 PM 33.5267 -113.2069 283° West 400 460 30,600 2,164 Climbing Albuquerque Center
Tue 11:49:32 PM 33.5522 -113.3400 283° West 407 468 32,900 2,262 Climbing Albuquerque Center
Tue 11:50:33 PM 33.5761 -113.4683 283° West 401 461 35,200 2,000 Climbing Albuquerque Center
Tue 11:51:35 PM 33.6000 -113.5956 283° West 396 456 37,000 1,805 Climbing Albuquerque Center
Tue 11:52:36 PM 33.6242 -113.7269 282° West 391 450 38,900 1,475 Climbing Albuquerque Center
Tue 11:53:37 PM 33.6481 -113.8519 283° West 385 443 40,000 541 Climbing Albuquerque Center
Tue 11:54:38 PM 33.6697 -113.9750 282° West 381 438 40,000  Level Albuquerque Center
Tue 11:55:39 PM 33.6928 -114.0986 283° West 380 437 40,000  Level Albuquerque Center
Tue 11:56:40 PM 33.7175 -114.2394 282° West 377 434 40,000  Level Albuquerque Center
Tue 11:57:41 PM 33.7403 -114.3611 283° West 375 432 40,000  Level Albuquerque Center
Tue 11:58:43 PM 33.7694 -114.4803 286° West 376 433 40,000  Level Albuquerque Center
Tue 11:59:49 PM 33.8158 -114.6081 294° West 378 435 40,000  Level Los Angeles Center
Wed 12:00:51 AM 33.8569 -114.7231 293° West 377 434 40,000  Level Los Angeles Center
Wed 12:01:52 AM 33.8978 -114.8394 293° West 378 435 40,000  Level Los Angeles Center
Wed 12:02:53 AM 33.9383 -114.9542 293° West 375 432 40,000  Level Los Angeles Center
Wed 12:03:55 AM 33.9792 -115.0697 293° West 377 434 40,000  Level Los Angeles Center
Wed 12:04:57 AM 34.0286 -115.2083 293° West 378 435 40,000  Level Los Angeles Center
Wed 12:05:58 AM 34.0689 -115.3242 293° West 377 434 40,000  Level Los Angeles Center
Wed 12:08:01 AM 34.1483 -115.5553 293° West 378 435 40,000  Level Los Angeles Center
Wed 12:09:02 AM 34.1872 -115.6681 293° West 368 423 40,000  Level Los Angeles Center
Wed 12:10:04 AM 34.2267 -115.7842 292° West 374 430 40,000  Level Los Angeles Center
Wed 12:11:05 AM 34.2722 -115.9161 293° West 374 430 40,000  Level Los Angeles Center
Wed 12:12:06 AM 34.3117 -116.0325 292° West 374 430 40,000  Level Los Angeles Center
Wed 12:13:08 AM 34.3519 -116.1481 293° West 374 430 40,000  Level Los Angeles Center
Wed 12:14:09 AM 34.3903 -116.2642 292° West 375 432 40,000  Level Los Angeles Center
Wed 12:15:11 AM 34.4297 -116.3789 293° West 370 426 40,000  Level Los Angeles Center
Wed 12:16:12 AM 34.4697 -116.4953 293° West 375 432 40,000  Level Los Angeles Center
Wed 12:17:13 AM 34.5075 -116.6117 292° West 372 428 40,000  Level Los Angeles Center
Wed 12:18:15 AM 34.5467 -116.7286 292° West 375 432 40,000  Level Los Angeles Center
Wed 12:19:16 AM 34.5864 -116.8456 292° West 375 432 40,000  Level Los Angeles Center
Wed 12:20:17 AM 34.6331 -116.9861 292° West 375 432 40,000  Level Los Angeles Center
Wed 12:21:19 AM 34.6717 -117.1047 292° West 378 435 40,000  Level Los Angeles Center
Wed 12:22:20 AM 34.7100 -117.2222 292° West 374 430 40,000  Level Los Angeles Center
Wed 12:23:21 AM 34.7481 -117.3397 292° West 373 429 40,000  Level Los Angeles Center
Wed 12:24:22 AM 34.7792 -117.4358 292° West 376 433 40,000  Level Los Angeles Center
Wed 12:25:24 AM 34.8256 -117.5800 291° West 379 436 40,000  Level Los Angeles Center
Wed 12:26:25 AM 34.8647 -117.7011 292° West 380 437 40,000  Level Los Angeles Center
Wed 12:27:26 AM 34.9042 -117.8225 292° West 381 438 40,000  Level Los Angeles Center
Wed 12:28:27 AM 34.9431 -117.9425 292° West 380 437 40,000  Level Los Angeles Center
Wed 12:29:28 AM 34.9736 -118.0381 291° West 377 434 40,000  Level Los Angeles Center
Wed 12:30:30 AM 35.0192 -118.1794 292° West 373 429 40,000  Level Los Angeles Center
Wed 12:31:31 AM 35.0575 -118.3000 291° West 379 436 40,000  Level Los Angeles Center
Wed 12:32:32 AM 35.0961 -118.4214 291° West 384 442 40,000  Level Los Angeles Center
Wed 12:33:34 AM 35.1372 -118.5522 291° West 381 438 40,000  Level Los Angeles Center
Wed 12:34:35 AM 35.1750 -118.6725 291° West 381 438 40,000 -541 Level Los Angeles Center
Wed 12:35:36 AM 35.2125 -118.7944 291° West 383 441 38,900 -984 Descending Los Angeles Center
Wed 12:36:37 AM 35.2514 -118.9133 292° West 378 435 38,000 -443 Descending Los Angeles Center
Wed 12:37:38 AM 35.2944 -119.0536 291° West 370 426 38,000  Level Los Angeles Center
Wed 12:38:39 AM 35.3300 -119.1725 290° West 372 428 38,000  Level Los Angeles Center
Wed 12:39:40 AM 35.3681 -119.2903 292° West 373 429 38,000  Level Los Angeles Center
Wed 12:40:41 AM 35.4036 -119.4089 290° West 373 429 38,000  Level Los Angeles Center
Wed 12:41:42 AM 35.4397 -119.5283 290° West 374 430 38,000  Level Los Angeles Center
Wed 12:42:43 AM 35.4756 -119.6464 290° West 373 429 38,000  Level Los Angeles Center
Wed 12:43:45 AM 35.5100 -119.7647 290° West 372 428 38,000  Level Los Angeles Center
Wed 12:44:46 AM 35.5453 -119.8794 291° West 364 419 38,000  Level Los Angeles Center
Wed 12:45:47 AM 35.5797 -119.9969 290° West 367 422 38,000  Level Los Angeles Center
Wed 12:46:48 AM 35.6214 -120.1361 290° West 367 422 38,000  Level Los Angeles Center
Wed 12:47:49 AM 35.6486 -120.2325 289° West 368 423 38,000  Level Los Angeles Center
Wed 12:48:39 AM 35.6847 -120.3439 292° West 364 419 38,000  Level Oakland Center
Wed 12:49:40 AM 35.7522 -120.4400 311° West 374 430 38,000  Level Oakland Center
Wed 12:50:41 AM 35.8211 -120.5344 312° West 373 429 38,000  Level Oakland Center
Wed 12:51:42 AM 35.8903 -120.6297 312° West 374 430 38,000 -744 Level Oakland Center
Wed 12:52:42 AM 35.9581 -120.7228 312° West 367 422 36,500 -1,934 Descending Oakland Center
Wed 12:53:43 AM 36.0233 -120.8133 312° West 357 411 34,100 -2,262 Descending Oakland Center
Wed 12:54:44 AM 36.0894 -120.9044 312° West 357 411 31,900 -2,066 Descending Oakland Center
Wed 12:55:45 AM 36.1525 -120.9936 311° West 347 399 29,900 -2,182 Descending Oakland Center
Wed 12:56:45 AM 36.2275 -121.0969 312° West 338 389 27,500 -2,182 Descending Oakland Center
Wed 12:57:46 AM 36.2881 -121.1831 311° West 333 383 25,500 -1,918 Descending Oakland Center
Wed 12:58:47 AM 36.3472 -121.2658 312° West 323 372 23,600 -1,967 Descending Oakland Center
Wed 12:59:48 AM 36.4069 -121.3494 312° West 322 371 21,500 -1,967 Descending Oakland Center
Wed 01:00:49 AM 36.4664 -121.4286 313° West 317 365 19,600 -1,934 Descending Oakland Center
Wed 01:01:49 AM 36.5453 -121.4764 334° Northwest 325 374 17,600 -1,934 Descending Oakland Center
Wed 01:02:50 AM 36.6367 -121.4944 351° North 331 381 15,700 -1,869 Descending Oakland Center
Wed 01:03:51 AM 36.7239 -121.5106 352° North 320 368 13,800 -1,835 Descending Oakland Center
Wed 01:04:51 AM 36.8131 -121.5256 352° North 321 369 12,000 -1,785 Descending Oakland Center
Wed 01:05:52 AM 36.8981 -121.5417 351° North 311 358 10,200 -1,377 Descending Oakland Center
Wed 01:06:53 AM 36.9789 -121.5539 353° North 297 342 9,200 -1,180 Descending Oakland Center
Wed 01:07:54 AM 37.0481 -121.5919 336° Northwest 286 329 7,800 -1,686 Descending Oakland Center
Wed 01:08:54 AM 37.1039 -121.6444 323° Northwest 261 300 5,800 -1,339 Descending Oakland Center
Wed 01:09:55 AM 37.1536 -121.7014 318° Northwest 221 254 5,100 -639 Descending Oakland Center
Wed 01:10:56 AM 37.1844 -121.7361 318° Northwest 180 207 4,500 -694 Descending Oakland Center
Wed 01:11:56 AM 37.2158 -121.7694 320° Northwest 160 184 3,700 -793 Descending Oakland Center
Wed 01:12:57 AM 37.2469 -121.8042 318° Northwest 153 176 2,900 -787 Descending Oakland Center
Wed 01:13:58 AM 37.2786 -121.8383 319° Northwest 151 174 2,100 -738 Descending Oakland Center
Wed 01:14:59 AM 37.3092 -121.8722 319° Northwest 149 171 1,400 -744 Descending Oakland Center
Wed 01:15:59 AM 37.3364 -121.9025 319° Northwest 140 161 600 -800 Descending Oakland Center
Wed 01:18:00 AM 37.3500 -121.9167 North  Level FlightAware Approximate
Wed 01:25:00 AM 37.3627 -121.9291 North  Level Estimated

Login

Don't have an account? Register now (free) for customized features, flight alerts, and more!